Time;durP1;ratioP1;P1;durP2;ratioP2;P2;SDS_P1;SDS_P2;PMS_P1;PMS_P2;Temp;Humidity;BMP_temperature;BMP_pressure;BME280_temperature;BME280_humidity;BME280_pressure;Samples;Min_cycle;Max_cycle;Signal;HPM_P1;HPM_P2
2021/09/02 00:00:30;;;;;;;16.37;14.67;;;12.80;99.90;;;;;;4970009;28;20824;-50
2021/09/02 00:02:56;;;;;;;16.03;14.37;;;12.80;99.90;;;;;;4971740;28;20408;-52
2021/09/02 00:05:21;;;;;;;17.30;14.83;;;12.80;99.90;;;;;;4966069;28;20435;-50
2021/09/02 00:07:47;;;;;;;15.63;13.63;;;12.80;99.90;;;;;;4971714;28;20181;-53
2021/09/02 00:10:13;;;;;;;16.00;14.30;;;12.80;99.90;;;;;;4970319;28;20201;-55
2021/09/02 00:12:39;;;;;;;17.23;13.70;;;12.80;99.90;;;;;;4971349;28;20200;-52
2021/09/02 00:15:07;;;;;;;16.70;14.97;;;12.80;99.90;;;;;;4970783;28;20193;-50
2021/09/02 00:17:33;;;;;;;17.03;14.20;;;12.70;99.90;;;;;;4960585;28;20469;-51
2021/09/02 00:19:58;;;;;;;16.80;14.00;;;12.70;99.90;;;;;;4967800;28;20447;-50
2021/09/02 00:22:24;;;;;;;16.60;13.50;;;12.70;99.90;;;;;;4971570;28;20859;-53
2021/09/02 00:24:49;;;;;;;15.10;13.50;;;12.70;99.90;;;;;;4970148;28;20196;-50
2021/09/02 00:27:15;;;;;;;17.10;14.40;;;12.70;99.90;;;;;;4970199;28;20721;-51
2021/09/02 00:29:41;;;;;;;16.17;13.37;;;12.60;99.90;;;;;;4967737;28;20678;-54
2021/09/02 00:32:07;;;;;;;16.80;14.20;;;12.60;99.90;;;;;;4969584;28;20666;-53
2021/09/02 00:34:32;;;;;;;15.83;13.60;;;12.60;99.90;;;;;;4971374;28;20259;-49
2021/09/02 00:36:58;;;;;;;20.10;14.17;;;12.60;99.90;;;;;;4967781;28;20555;-52
2021/09/02 00:39:23;;;;;;;18.50;14.77;;;12.60;99.90;;;;;;4965351;28;20211;-50
2021/09/02 00:41:49;;;;;;;15.97;14.27;;;12.50;99.90;;;;;;4969428;28;20634;-53
2021/09/02 00:44:33;;;;;;;18.10;15.00;;;12.50;99.90;;;;;;4971285;28;20267;-52
2021/09/02 00:47:00;;;;;;;16.50;13.80;;;12.40;99.90;;;;;;4968408;28;20397;-50
2021/09/02 00:49:26;;;;;;;18.70;14.40;;;12.40;99.90;;;;;;4971027;28;20478;-49
2021/09/02 00:51:52;;;;;;;16.63;13.73;;;12.40;99.90;;;;;;4969828;28;20925;-52
2021/09/02 00:54:17;;;;;;;17.13;14.73;;;12.40;99.90;;;;;;4969979;28;20439;-55
2021/09/02 00:56:43;;;;;;;18.90;13.80;;;12.30;99.90;;;;;;4969850;28;20319;-53
2021/09/02 00:59:09;;;;;;;17.90;13.90;;;12.30;99.90;;;;;;4969927;28;20224;-52
2021/09/02 01:01:34;;;;;;;16.13;13.37;;;12.30;99.90;;;;;;4962361;28;20177;-52
2021/09/02 01:04:03;;;;;;;16.93;14.37;;;12.40;99.90;;;;;;4970886;28;20283;-50
2021/09/02 01:06:29;;;;;;;18.90;14.70;;;12.30;99.90;;;;;;4969811;28;20283;-52
2021/09/02 01:08:55;;;;;;;15.90;14.13;;;12.30;99.90;;;;;;4970217;28;20443;-51
2021/09/02 01:11:21;;;;;;;17.50;13.97;;;12.30;99.90;;;;;;4969273;28;20455;-53
2021/09/02 01:13:47;;;;;;;17.80;14.87;;;12.30;99.90;;;;;;4958634;28;20499;-53
2021/09/02 01:16:12;;;;;;;16.60;14.80;;;12.30;99.90;;;;;;4965226;28;21014;-48
2021/09/02 01:18:38;;;;;;;18.40;14.93;;;12.30;99.90;;;;;;4969690;28;20901;-48
2021/09/02 01:21:04;;;;;;;16.70;14.50;;;12.20;99.90;;;;;;4970263;28;20193;-50
2021/09/02 01:23:37;;;;;;;19.23;15.30;;;12.20;99.90;;;;;;4969639;28;20188;-55
2021/09/02 01:26:16;;;;;;;18.80;15.27;;;12.20;99.90;;;;;;4969471;28;20452;-48
2021/09/02 01:28:42;;;;;;;17.40;14.87;;;12.20;99.90;;;;;;4963626;28;20480;-52
2021/09/02 01:31:09;;;;;;;19.87;16.40;;;12.20;99.90;;;;;;4970461;28;20516;-51
2021/09/02 01:33:35;;;;;;;18.03;14.50;;;12.20;99.90;;;;;;4967827;28;20474;-53
2021/09/02 01:36:00;;;;;;;20.60;15.33;;;12.10;99.90;;;;;;4969896;28;20527;-50
2021/09/02 01:38:26;;;;;;;18.87;14.70;;;12.10;99.90;;;;;;4968076;28;21028;-50
2021/09/02 01:40:51;;;;;;;17.53;14.80;;;12.10;99.90;;;;;;4970095;28;20227;-57
2021/09/02 01:43:17;;;;;;;17.47;14.63;;;12.10;99.90;;;;;;4967969;28;20237;-50
2021/09/02 01:45:43;;;;;;;22.33;16.03;;;12.00;99.90;;;;;;4970351;28;20193;-51
2021/09/02 01:48:09;;;;;;;20.90;16.57;;;12.10;99.90;;;;;;4968798;28;20421;-49
2021/09/02 01:50:40;;;;;;;21.03;15.53;;;12.10;99.90;;;;;;4969909;28;20543;-51
2021/09/02 01:53:07;;;;;;;19.60;16.10;;;12.10;99.90;;;;;;4973317;28;20629;-51
2021/09/02 01:55:34;;;;;;;19.00;16.00;;;12.10;99.90;;;;;;4973918;28;21000;-50
2021/09/02 01:57:59;;;;;;;17.07;14.70;;;12.10;99.90;;;;;;4970799;28;20761;-50
2021/09/02 02:00:25;;;;;;;20.57;16.43;;;12.10;99.90;;;;;;4973964;28;20518;-49
2021/09/02 02:02:51;;;;;;;18.23;15.23;;;12.10;99.90;;;;;;4972592;28;20267;-51
2021/09/02 02:05:18;;;;;;;21.80;15.23;;;12.10;99.90;;;;;;4974107;28;20173;-49
2021/09/02 02:07:44;;;;;;;18.57;15.33;;;12.10;99.90;;;;;;4968194;28;20462;-47
2021/09/02 02:10:15;;;;;;;17.10;14.37;;;12.00;99.90;;;;;;4967836;28;20432;-48
2021/09/02 02:12:41;;;;;;;16.47;13.93;;;12.00;99.90;;;;;;4972792;28;20535;-57
2021/09/02 02:15:08;;;;;;;20.03;15.90;;;11.90;99.90;;;;;;4973124;28;20535;-51
2021/09/02 02:17:34;;;;;;;21.07;14.77;;;11.90;99.90;;;;;;4972249;28;20510;-52
2021/09/02 02:19:59;;;;;;;16.70;14.10;;;11.90;99.90;;;;;;4970597;28;20467;-49
2021/09/02 02:22:25;;;;;;;17.53;14.13;;;11.90;99.90;;;;;;4973098;28;20196;-53
2021/09/02 02:24:51;;;;;;;16.10;14.03;;;11.80;99.90;;;;;;4971098;28;20181;-48
2021/09/02 02:27:16;;;;;;;15.47;13.80;;;11.80;99.90;;;;;;4973251;28;20448;-53
2021/09/02 02:29:42;;;;;;;16.33;13.17;;;11.70;99.90;;;;;;4966333;28;20319;-54
2021/09/02 02:32:07;;;;;;;17.77;14.70;;;11.70;99.90;;;;;;4971451;28;20524;-48
2021/09/02 02:34:33;;;;;;;16.47;14.00;;;11.70;99.90;;;;;;4972605;28;20189;-49
2021/09/02 02:36:59;;;;;;;17.97;13.70;;;11.60;99.90;;;;;;4973132;28;20217;-53
2021/09/02 02:39:24;;;;;;;16.67;12.67;;;11.60;99.90;;;;;;4971640;28;20236;-50
2021/09/02 02:41:50;;;;;;;15.07;13.30;;;11.60;99.90;;;;;;4973292;28;20974;-53
2021/09/02 02:44:16;;;;;;;15.30;13.07;;;11.60;99.90;;;;;;4967156;28;20257;-51
2021/09/02 02:46:41;;;;;;;18.47;13.63;;;11.50;99.90;;;;;;4971766;28;20498;-52
2021/09/02 02:49:07;;;;;;;17.47;13.50;;;11.60;99.90;;;;;;4972896;28;20200;-50
2021/09/02 02:51:34;;;;;;;17.03;13.93;;;11.60;99.90;;;;;;4970279;28;20196;-52
2021/09/02 02:54:00;;;;;;;17.53;14.23;;;11.60;99.90;;;;;;4971833;28;20189;-47
2021/09/02 02:56:26;;;;;;;16.47;14.20;;;11.60;99.90;;;;;;4971397;28;20474;-50
2021/09/02 02:58:51;;;;;;;18.80;14.80;;;11.70;99.90;;;;;;4970870;28;20486;-51
2021/09/02 03:01:17;;;;;;;17.43;13.27;;;11.60;99.90;;;;;;4972082;28;20274;-52
2021/09/02 03:03:43;;;;;;;17.07;14.80;;;11.50;99.90;;;;;;4972132;28;20216;-48
2021/09/02 03:06:09;;;;;;;17.53;13.60;;;11.50;99.90;;;;;;4971131;28;20256;-50
2021/09/02 03:08:35;;;;;;;16.77;13.80;;;11.40;99.90;;;;;;4971547;28;20625;-50
2021/09/02 03:11:00;;;;;;;18.80;14.43;;;11.40;99.90;;;;;;4970140;28;20514;-50
2021/09/02 03:13:26;;;;;;;17.00;14.47;;;11.40;99.90;;;;;;4970462;28;20193;-47
2021/09/02 03:15:51;;;;;;;19.40;14.40;;;11.40;99.90;;;;;;4971090;28;20286;-51
2021/09/02 03:18:17;;;;;;;17.60;14.73;;;11.30;99.90;;;;;;4970688;28;20616;-54
2021/09/02 03:20:42;;;;;;;19.43;16.03;;;11.40;99.90;;;;;;4970479;28;20191;-53
2021/09/02 03:23:08;;;;;;;21.57;15.47;;;11.40;99.90;;;;;;4971960;28;20260;-50
2021/09/02 03:25:34;;;;;;;19.90;14.60;;;11.40;99.90;;;;;;4968358;28;20191;-51
2021/09/02 03:27:59;;;;;;;19.03;14.70;;;11.40;99.90;;;;;;4970579;28;20193;-53
2021/09/02 03:30:25;;;;;;;19.03;14.33;;;11.40;99.90;;;;;;4970900;28;20627;-52
2021/09/02 03:32:50;;;;;;;17.53;14.80;;;11.40;99.90;;;;;;4971453;28;20217;-51
2021/09/02 03:35:16;;;;;;;19.17;15.17;;;11.40;99.90;;;;;;4971743;28;20181;-47
2021/09/02 03:37:41;;;;;;;20.10;15.47;;;11.40;99.90;;;;;;4971080;28;20213;-54
2021/09/02 03:40:07;;;;;;;18.70;15.30;;;11.40;99.90;;;;;;4971336;28;20189;-54
2021/09/02 03:42:33;;;;;;;20.20;14.60;;;11.30;99.90;;;;;;4970898;28;20181;-48
2021/09/02 03:44:59;;;;;;;21.50;16.03;;;11.30;99.90;;;;;;4971191;28;20441;-50
2021/09/02 03:47:24;;;;;;;19.97;15.87;;;11.30;99.90;;;;;;4970501;28;20191;-47
2021/09/02 03:49:50;;;;;;;19.63;15.80;;;11.30;99.90;;;;;;4970938;28;20440;-49
2021/09/02 03:52:15;;;;;;;18.97;15.00;;;11.30;99.90;;;;;;4970974;28;20268;-51
2021/09/02 03:54:41;;;;;;;18.73;15.40;;;11.20;99.90;;;;;;4969674;28;20656;-53
2021/09/02 03:57:06;;;;;;;17.50;14.50;;;11.30;99.90;;;;;;4959824;28;20205;-50
2021/09/02 03:59:32;;;;;;;17.63;14.10;;;11.30;99.90;;;;;;4971322;28;20315;-49
2021/09/02 04:01:57;;;;;;;18.07;14.00;;;11.20;99.90;;;;;;4970757;28;20680;-48
2021/09/02 04:04:23;;;;;;;16.07;14.10;;;11.20;99.90;;;;;;4970947;28;20675;-51
2021/09/02 04:06:50;;;;;;;18.03;15.00;;;11.20;99.90;;;;;;4969199;28;20209;-54
2021/09/02 04:09:15;;;;;;;18.93;14.57;;;11.10;99.90;;;;;;4969536;28;20440;-50
2021/09/02 04:11:41;;;;;;;16.13;13.63;;;11.10;99.90;;;;;;4969870;28;20193;-48
2021/09/02 04:14:06;;;;;;;18.10;14.13;;;11.10;99.90;;;;;;4965342;28;20201;-53
2021/09/02 04:16:32;;;;;;;15.63;13.00;;;11.10;99.90;;;;;;4964214;28;20552;-49
2021/09/02 04:18:58;;;;;;;16.33;12.30;;;11.10;99.90;;;;;;4963809;28;20875;-48
2021/09/02 04:21:23;;;;;;;16.00;13.30;;;11.10;99.90;;;;;;4961197;28;20197;-50
2021/09/02 04:23:49;;;;;;;17.57;14.57;;;11.10;99.90;;;;;;4962131;28;20193;-52
2021/09/02 04:26:16;;;;;;;21.27;13.90;;;11.10;99.90;;;;;;4960828;28;20565;-49
2021/09/02 04:28:42;;;;;;;17.93;13.60;;;11.10;99.90;;;;;;4961413;28;20511;-51
2021/09/02 04:31:08;;;;;;;16.30;13.00;;;11.00;99.90;;;;;;4960581;28;20529;-50
2021/09/02 04:33:33;;;;;;;17.60;13.53;;;11.00;99.90;;;;;;4961566;28;20447;-55
2021/09/02 04:35:59;;;;;;;19.40;13.40;;;10.90;99.90;;;;;;4960033;28;21180;-49
2021/09/02 04:38:24;;;;;;;16.37;13.60;;;11.00;99.90;;;;;;4960768;28;20185;-51
2021/09/02 04:40:51;;;;;;;20.37;13.80;;;11.00;99.90;;;;;;4966651;28;20567;-48
2021/09/02 04:43:17;;;;;;;18.30;15.10;;;11.00;99.90;;;;;;4961008;28;20200;-50
2021/09/02 04:45:42;;;;;;;20.27;14.90;;;11.00;99.90;;;;;;4970031;28;20429;-51
2021/09/02 04:48:19;;;;;;;20.30;14.80;;;11.00;99.90;;;;;;4970036;28;20801;-51
2021/09/02 04:50:47;;;;;;;16.03;13.20;;;11.00;99.90;;;;;;4969673;28;20482;-50
2021/09/02 04:53:13;;;;;;;18.80;14.20;;;11.00;99.90;;;;;;4970190;28;20491;-53
2021/09/02 04:55:39;;;;;;;18.30;13.37;;;11.00;99.90;;;;;;4969718;28;20512;-51
2021/09/02 04:58:06;;;;;;;16.73;13.77;;;11.00;99.90;;;;;;4970860;28;20189;-48
2021/09/02 05:00:33;;;;;;;17.20;13.40;;;11.00;99.90;;;;;;4968832;28;20558;-52
2021/09/02 05:02:58;;;;;;;17.50;13.70;;;11.00;99.90;;;;;;4970133;28;20774;-52
2021/09/02 05:05:24;;;;;;;16.80;13.83;;;10.90;99.90;;;;;;4969329;28;20503;-52
2021/09/02 05:07:50;;;;;;;15.00;13.20;;;11.00;99.90;;;;;;4969470;28;20224;-51
2021/09/02 05:10:15;;;;;;;16.73;13.40;;;11.00;99.90;;;;;;4968149;28;20192;-54
2021/09/02 05:12:41;;;;;;;18.73;13.57;;;11.00;99.90;;;;;;4969255;28;20193;-54
2021/09/02 05:15:07;;;;;;;16.50;13.43;;;11.10;99.90;;;;;;4968970;28;20188;-52
2021/09/02 05:17:32;;;;;;;17.47;14.40;;;11.10;99.90;;;;;;4968861;28;20217;-55
2021/09/02 05:19:58;;;;;;;17.10;14.00;;;11.10;99.90;;;;;;4968274;28;20444;-53
2021/09/02 05:22:23;;;;;;;15.77;12.73;;;11.20;99.90;;;;;;4969990;28;20191;-51
2021/09/02 05:24:49;;;;;;;16.23;13.07;;;11.20;99.90;;;;;;4969639;28;20231;-48
2021/09/02 05:27:15;;;;;;;16.47;14.20;;;11.20;99.90;;;;;;4974404;28;20183;-49
2021/09/02 05:29:41;;;;;;;16.90;14.57;;;11.10;99.90;;;;;;4973059;28;20547;-53
2021/09/02 05:32:07;;;;;;;17.60;13.93;;;11.20;99.90;;;;;;4972857;28;20181;-51
2021/09/02 05:34:32;;;;;;;20.80;14.37;;;11.30;99.90;;;;;;4973573;28;20189;-53
2021/09/02 05:36:58;;;;;;;18.67;13.70;;;11.30;99.90;;;;;;4974070;28;20491;-52
2021/09/02 05:39:24;;;;;;;16.57;13.40;;;11.40;99.90;;;;;;4973401;28;20191;-52
2021/09/02 05:41:50;;;;;;;15.20;12.67;;;11.50;99.90;;;;;;4974121;28;20187;-51
2021/09/02 05:44:16;;;;;;;17.67;13.93;;;11.50;99.90;;;;;;4971834;28;20640;-52
2021/09/02 05:46:41;;;;;;;18.70;14.30;;;11.50;99.90;;;;;;4966959;28;20523;-52
2021/09/02 05:49:07;;;;;;;16.97;13.13;;;11.50;99.90;;;;;;4971928;28;20444;-53
2021/09/02 05:51:33;;;;;;;19.60;13.97;;;11.50;99.90;;;;;;4969220;28;20584;-51
2021/09/02 05:53:58;;;;;;;17.33;13.43;;;11.50;99.90;;;;;;4973200;28;20189;-52
2021/09/02 05:56:24;;;;;;;16.20;13.43;;;11.60;99.90;;;;;;4973378;28;20205;-52
2021/09/02 05:58:49;;;;;;;20.13;13.73;;;11.60;99.90;;;;;;4972751;28;20189;-52
2021/09/02 06:01:16;;;;;;;19.77;14.00;;;11.70;99.90;;;;;;4973158;28;20182;-48
2021/09/02 06:03:42;;;;;;;14.40;12.47;;;11.80;99.90;;;;;;4971483;28;20613;-50
2021/09/02 06:06:07;;;;;;;16.83;13.77;;;11.90;99.90;;;;;;4973807;28;20764;-52
2021/09/02 06:08:36;;;;;;;17.90;14.20;;;12.00;99.90;;;;;;4971684;28;20435;-53
2021/09/02 06:11:05;;;;;;;16.43;13.30;;;12.10;99.90;;;;;;4972029;28;20271;-52
2021/09/02 06:13:31;;;;;;;20.10;14.63;;;12.20;99.90;;;;;;4972806;28;20523;-50
2021/09/02 06:15:56;;;;;;;19.47;14.43;;;12.30;99.90;;;;;;4973023;28;20467;-52
2021/09/02 06:18:22;;;;;;;19.67;14.00;;;12.50;99.90;;;;;;4972640;28;20416;-48
2021/09/02 06:20:48;;;;;;;15.93;14.10;;;12.50;99.90;;;;;;4972733;28;20201;-48
2021/09/02 06:23:13;;;;;;;16.87;13.33;;;12.60;99.90;;;;;;4970734;28;20259;-55
2021/09/02 06:25:39;;;;;;;15.13;12.90;;;12.70;99.90;;;;;;4972395;28;21031;-48
2021/09/02 06:28:05;;;;;;;19.27;15.80;;;12.80;99.90;;;;;;4971533;28;20244;-53
2021/09/02 06:30:31;;;;;;;16.33;14.60;;;13.00;99.90;;;;;;4972208;28;20573;-51
2021/09/02 06:32:57;;;;;;;18.63;14.60;;;13.20;99.90;;;;;;4969919;28;20436;-49
2021/09/02 06:35:22;;;;;;;18.87;15.00;;;13.20;99.90;;;;;;4968858;28;20437;-50
2021/09/02 06:37:48;;;;;;;16.73;14.00;;;13.30;99.90;;;;;;4972957;28;20464;-55
2021/09/02 06:40:14;;;;;;;16.43;13.70;;;13.30;99.90;;;;;;4972705;28;20187;-53
2021/09/02 06:42:40;;;;;;;17.30;15.30;;;13.40;99.90;;;;;;4987987;28;20239;-53
2021/09/02 06:45:06;;;;;;;15.90;14.30;;;13.40;99.90;;;;;;4972006;28;20432;-54
2021/09/02 06:47:32;;;;;;;16.17;13.67;;;13.50;99.90;;;;;;4971645;28;20299;-55
2021/09/02 06:49:57;;;;;;;21.70;14.87;;;13.60;99.90;;;;;;4972696;28;20535;-53
2021/09/02 06:52:23;;;;;;;16.50;14.40;;;13.70;99.90;;;;;;4972704;28;20204;-53
2021/09/02 06:54:49;;;;;;;18.57;14.77;;;13.90;99.90;;;;;;4971045;28;20193;-53
2021/09/02 06:57:14;;;;;;;17.47;14.87;;;14.00;99.90;;;;;;4972821;28;20668;-51
2021/09/02 06:59:40;;;;;;;19.20;14.70;;;14.00;99.90;;;;;;4971674;28;20724;-54
2021/09/02 07:02:06;;;;;;;18.50;14.80;;;14.20;99.90;;;;;;4972513;28;20223;-55
2021/09/02 07:04:31;;;;;;;19.23;16.53;;;14.30;99.90;;;;;;4970209;28;20184;-56
2021/09/02 07:06:57;;;;;;;21.97;18.20;;;14.50;99.90;;;;;;4972536;28;20200;-55
2021/09/02 07:09:22;;;;;;;19.67;16.67;;;14.50;99.90;;;;;;4971781;28;20248;-52
2021/09/02 07:11:48;;;;;;;20.30;17.10;;;14.60;99.90;;;;;;4972579;28;20216;-55
2021/09/02 07:14:14;;;;;;;20.50;16.50;;;14.70;99.90;;;;;;4985729;28;20192;-52
2021/09/02 07:16:40;;;;;;;20.60;17.20;;;14.90;99.90;;;;;;4967853;28;20208;-55
2021/09/02 07:19:05;;;;;;;21.47;17.57;;;15.00;99.90;;;;;;4985519;28;20440;-55
2021/09/02 07:21:31;;;;;;;24.67;17.80;;;15.00;99.90;;;;;;4972014;28;20180;-51
2021/09/02 07:23:56;;;;;;;20.53;17.00;;;15.10;99.90;;;;;;4972244;28;20196;-55
2021/09/02 07:26:22;;;;;;;19.57;16.20;;;15.30;99.90;;;;;;4971222;28;20486;-54
2021/09/02 07:28:48;;;;;;;18.70;14.70;;;15.40;99.90;;;;;;4970536;28;20192;-56
2021/09/02 07:31:14;;;;;;;19.40;15.77;;;15.40;99.90;;;;;;4971236;28;20177;-51
2021/09/02 07:33:39;;;;;;;20.77;16.20;;;15.60;99.90;;;;;;4971376;28;20216;-56
2021/09/02 07:36:05;;;;;;;18.13;16.20;;;15.70;99.90;;;;;;4971133;28;20228;-55
2021/09/02 07:38:31;;;;;;;18.30;15.33;;;15.90;99.90;;;;;;4970991;28;20183;-52
2021/09/02 07:40:56;;;;;;;23.03;16.20;;;16.00;99.90;;;;;;4970852;28;20244;-57
2021/09/02 07:43:22;;;;;;;20.37;16.10;;;16.20;99.90;;;;;;4972167;28;20185;-49
2021/09/02 07:45:47;;;;;;;19.70;16.30;;;16.30;99.90;;;;;;4971243;28;20193;-54
2021/09/02 07:48:13;;;;;;;17.57;15.33;;;16.50;99.90;;;;;;4971725;28;20197;-53
2021/09/02 07:50:38;;;;;;;18.33;16.07;;;16.60;99.90;;;;;;4971735;28;20175;-54
2021/09/02 07:53:04;;;;;;;17.40;15.20;;;16.70;99.90;;;;;;4971232;28;20188;-55
2021/09/02 07:55:30;;;;;;;19.20;15.80;;;16.90;99.90;;;;;;4962490;28;20193;-53
2021/09/02 07:57:56;;;;;;;19.27;15.63;;;17.10;99.90;;;;;;4969211;28;20640;-55
2021/09/02 08:00:22;;;;;;;18.90;15.80;;;17.20;99.90;;;;;;4970340;28;20252;-53
2021/09/02 08:02:47;;;;;;;20.70;15.70;;;17.40;99.90;;;;;;4971241;28;20425;-48
2021/09/02 08:05:13;;;;;;;19.27;16.33;;;17.60;99.90;;;;;;4970829;28;20219;-52
2021/09/02 08:07:50;;;;;;;24.10;16.97;;;17.80;99.90;;;;;;4969821;28;20216;-54
2021/09/02 08:10:17;;;;;;;19.60;16.63;;;18.00;99.90;;;;;;4970714;28;20439;-58
2021/09/02 08:12:44;;;;;;;24.47;17.10;;;18.10;99.90;;;;;;4970844;28;20436;-51
2021/09/02 08:15:10;;;;;;;19.07;15.47;;;18.30;99.90;;;;;;4971281;28;20925;-54
2021/09/02 08:17:35;;;;;;;18.20;14.50;;;18.50;99.90;;;;;;4969135;28;20495;-57
2021/09/02 08:20:01;;;;;;;19.23;15.60;;;18.70;99.90;;;;;;4969651;28;20432;-56
2021/09/02 08:22:27;;;;;;;17.40;14.57;;;19.00;99.90;;;;;;4968783;28;20271;-52
2021/09/02 08:24:52;;;;;;;19.13;15.43;;;19.10;99.90;;;;;;4970357;28;20176;-56
2021/09/02 08:27:20;;;;;;;20.40;16.07;;;19.40;99.90;;;;;;4969484;28;20259;-56
2021/09/02 08:29:46;;;;;;;17.97;15.30;;;19.70;99.90;;;;;;4970106;28;20211;-52
2021/09/02 08:32:12;;;;;;;17.40;14.37;;;19.80;99.90;;;;;;4970709;28;20420;-54
2021/09/02 08:34:38;;;;;;;17.97;14.60;;;20.00;99.90;;;;;;4970102;28;20436;-57
2021/09/02 08:37:04;;;;;;;15.80;14.10;;;20.20;99.90;;;;;;4969770;28;20471;-51
2021/09/02 08:39:29;;;;;;;19.60;15.60;;;20.40;99.90;;;;;;4971334;28;20542;-54
2021/09/02 08:41:56;;;;;;;19.17;15.90;;;20.50;99.90;;;;;;4970525;28;20177;-54
2021/09/02 08:44:21;;;;;;;18.73;14.87;;;20.70;99.90;;;;;;4970743;28;20657;-53
2021/09/02 08:46:47;;;;;;;18.10;15.70;;;20.80;99.90;;;;;;4970200;28;20444;-53
2021/09/02 08:49:18;;;;;;;17.40;15.20;;;20.80;99.90;;;;;;4971496;28;20196;-54
2021/09/02 08:51:44;;;;;;;15.30;13.37;;;20.80;99.90;;;;;;4985788;28;20440;-52
2021/09/02 08:54:10;;;;;;;15.80;13.97;;;21.20;99.90;;;;;;4970368;28;20461;-54
2021/09/02 08:56:35;;;;;;;17.93;14.80;;;21.90;99.90;;;;;;4970201;28;20214;-53
2021/09/02 08:59:01;;;;;;;15.40;13.80;;;22.60;99.90;;;;;;4970341;28;20467;-52
2021/09/02 09:01:27;;;;;;;16.20;14.53;;;22.90;99.90;;;;;;4970079;28;20245;-55
2021/09/02 09:03:52;;;;;;;16.17;14.47;;;23.10;99.90;;;;;;4970917;28;20184;-53
2021/09/02 09:06:28;;;;;;;15.53;14.00;;;23.70;99.90;;;;;;4969113;28;20198;-55
2021/09/02 09:08:54;;;;;;;14.67;13.13;;;24.10;99.90;;;;;;4970406;28;20340;-51
2021/09/02 09:11:30;;;;;;;14.20;12.70;;;24.60;97.70;;;;;;4968917;28;20555;-53
2021/09/02 09:14:08;;;;;;;13.13;11.07;;;24.80;95.20;;;;;;4970894;28;20450;-52
2021/09/02 09:16:48;;;;;;;12.70;11.50;;;25.00;96.60;;;;;;4968397;28;20468;-52
2021/09/02 09:19:35;;;;;;;13.80;12.50;;;25.10;94.90;;;;;;4970883;28;20393;-53
2021/09/02 09:22:02;;;;;;;10.57;9.57;;;25.20;94.30;;;;;;4968195;28;20923;-56
2021/09/02 09:24:50;;;;;;;11.70;10.60;;;25.00;93.40;;;;;;4970609;28;20425;-54
2021/09/02 09:27:19;;;;;;;11.57;10.40;;;25.40;93.30;;;;;;4970373;28;20498;-52
2021/09/02 09:30:02;;;;;;;10.83;9.83;;;26.00;91.30;;;;;;4966479;28;20437;-54
2021/09/02 09:32:49;;;;;;;10.83;9.77;;;26.50;90.50;;;;;;4966494;28;20843;-54
2021/09/02 09:35:19;;;;;;;11.10;10.20;;;27.10;86.60;;;;;;4968534;28;20824;-56
2021/09/02 09:37:47;;;;;;;11.27;10.27;;;27.70;99.90;;;;;;4966974;28;20473;-52
2021/09/02 09:40:15;;;;;;;10.50;9.60;;;28.20;99.90;;;;;;4970019;28;20449;-51
2021/09/02 09:43:06;;;;;;;10.77;9.97;;;28.70;99.90;;;;;;4969383;28;20428;-53
2021/09/02 09:45:36;;;;;;;9.27;8.47;;;29.40;99.90;;;;;;4970880;28;20397;-52
2021/09/02 09:48:02;;;;;;;9.80;9.10;;;30.00;99.90;;;;;;4965392;28;20530;-52
2021/09/02 09:50:28;;;;;;;11.00;10.10;;;30.30;99.90;;;;;;4969147;28;20451;-54
2021/09/02 09:52:53;;;;;;;10.30;9.50;;;30.10;99.90;;;;;;4965180;28;20923;-55
2021/09/02 09:55:20;;;;;;;10.03;9.20;;;30.10;99.90;;;;;;4967656;28;20221;-50
2021/09/02 09:57:47;;;;;;;9.60;8.70;;;30.00;99.90;;;;;;4985222;28;20266;-52
2021/09/02 10:00:15;;;;;;;10.67;9.77;;;30.30;99.90;;;;;;4969768;28;20957;-52
2021/09/02 10:02:43;;;;;;;11.47;10.50;;;30.10;99.90;;;;;;4970439;28;20581;-50
2021/09/02 10:05:11;;;;;;;10.33;9.53;;;30.20;99.90;;;;;;4971363;28;20417;-53
2021/09/02 10:07:39;;;;;;;10.23;9.30;;;30.10;99.90;;;;;;4969966;28;20540;-54
2021/09/02 10:10:09;;;;;;;9.67;8.87;;;29.90;99.90;;;;;;4970302;28;20419;-51
2021/09/02 10:12:36;;;;;;;10.27;9.37;;;30.10;99.90;;;;;;4978073;28;20461;-53
2021/09/02 10:15:06;;;;;;;9.50;8.80;;;30.20;99.90;;;;;;4973600;28;20436;-52
2021/09/02 10:17:36;;;;;;;8.50;7.80;;;30.30;99.90;;;;;;4976364;28;20613;-55
2021/09/02 10:20:15;;;;;;;8.37;7.77;;;30.10;99.90;;;;;;4974183;28;20442;-51
2021/09/02 10:22:41;;;;;;;8.13;7.53;;;30.40;99.90;;;;;;4974094;28;20435;-54
2021/09/02 10:25:33;;;;;;;10.00;9.27;;;30.60;99.90;;;;;;4968605;28;20425;-59
2021/09/02 10:28:05;;;;;;;8.60;8.00;;;31.50;99.90;;;;;;4975966;28;20436;-55
2021/09/02 10:30:38;;;;;;;8.20;7.60;;;31.90;99.90;;;;;;4971008;28;20412;-51
2021/09/02 10:33:34;;;;;;;8.03;7.43;;;31.60;99.90;;;;;;4971760;28;20432;-51
2021/09/02 10:36:21;;;;;;;7.90;7.30;;;31.40;99.90;;;;;;4967426;28;20451;-54
2021/09/02 10:38:51;;;;;;;7.83;7.23;;;31.40;99.90;;;;;;4966842;28;20437;-51
2021/09/02 10:41:35;;;;;;;8.03;7.43;;;31.30;99.90;;;;;;4971614;28;20958;-53
2021/09/02 10:44:02;;;;;;;7.23;6.73;;;31.50;99.90;;;;;;4971240;28;20420;-52
2021/09/02 10:46:36;;;;;;;6.60;6.10;;;31.40;99.90;;;;;;4972904;28;20428;-51
2021/09/02 10:49:22;;;;;;;6.30;5.90;;;31.60;99.90;;;;;;4973435;28;20413;-55
2021/09/02 10:51:51;;;;;;;6.60;6.10;;;31.70;99.90;;;;;;4973460;28;20810;-54
2021/09/02 10:54:22;;;;;;;6.03;5.53;;;31.90;99.90;;;;;;4973435;28;20904;-50
2021/09/02 10:56:57;;;;;;;6.83;6.37;;;32.20;99.90;;;;;;4975310;28;20455;-53
2021/09/02 10:59:43;;;;;;;6.37;5.97;;;32.50;99.90;;;;;;4973122;28;20479;-54
2021/09/02 11:02:28;;;;;;;6.37;5.97;;;33.10;99.90;;;;;;4972317;28;20416;-50
2021/09/02 11:05:05;;;;;;;6.07;5.60;;;34.10;99.90;;;;;;4972834;28;20436;-54
2021/09/02 11:07:45;;;;;;;5.70;5.30;;;34.50;99.90;;;;;;4968394;28;20527;-54
2021/09/02 11:10:12;;;;;;;6.17;5.77;;;34.90;99.90;;;;;;4973883;28;20424;-56
2021/09/02 11:12:38;;;;;;;6.53;6.03;;;34.90;99.90;;;;;;4974719;28;20431;-53
2021/09/02 11:15:05;;;;;;;7.23;6.60;;;34.60;99.90;;;;;;4972834;28;20436;-49
2021/09/02 11:17:30;;;;;;;6.60;6.20;;;34.80;99.90;;;;;;4969906;28;20460;-55
2021/09/02 11:19:56;;;;;;;6.63;6.23;;;35.20;99.90;;;;;;4970330;28;20440;-56
2021/09/02 11:22:21;;;;;;;6.07;5.57;;;36.20;99.90;;;;;;4971850;28;20213;-56
2021/09/02 11:24:52;;;;;;;6.80;6.40;;;36.50;99.90;;;;;;4970021;28;20189;-55
2021/09/02 11:27:27;;;;;;;6.70;6.20;;;36.10;99.90;;;;;;4971769;28;20204;-53
2021/09/02 11:29:53;;;;;;;6.80;6.40;;;35.40;99.90;;;;;;4969620;28;20447;-55
2021/09/02 11:32:24;;;;;;;6.80;6.40;;;34.30;99.90;;;;;;4970592;28;20417;-53
2021/09/02 11:34:59;;;;;;;6.03;5.73;;;33.80;99.90;;;;;;4970452;28;20184;-55
2021/09/02 11:37:36;;;;;;;6.50;6.10;;;33.20;99.90;;;;;;4969060;28;20797;-50
2021/09/02 11:40:02;;;;;;;6.33;5.93;;;33.60;99.90;;;;;;4968942;28;20412;-54
2021/09/02 11:42:27;;;;;;;7.00;6.40;;;34.00;99.90;;;;;;4970049;28;22652;-52
2021/09/02 11:44:53;;;;;;;7.07;6.57;;;34.50;99.90;;;;;;4969841;28;21282;-56
2021/09/02 11:47:18;;;;;;;6.77;6.37;;;34.20;99.90;;;;;;4969727;28;20197;-51
2021/09/02 11:49:44;;;;;;;6.80;6.20;;;34.00;99.90;;;;;;4970856;28;20579;-54
2021/09/02 11:52:10;;;;;;;7.07;6.57;;;33.70;99.90;;;;;;4970763;28;20184;-53
2021/09/02 11:54:36;;;;;;;6.60;6.20;;;32.70;99.90;;;;;;4961480;28;20268;-53
2021/09/02 11:57:03;;;;;;;7.10;6.40;;;32.90;99.90;;;;;;4968268;28;20413;-54
2021/09/02 11:59:29;;;;;;;7.07;6.57;;;33.60;99.90;;;;;;4972979;28;20294;-54
2021/09/02 12:01:56;;;;;;;6.47;6.07;;;33.50;99.90;;;;;;4966832;28;21394;-56
2021/09/02 12:04:29;;;;;;;6.60;6.00;;;33.80;99.90;;;;;;4969590;28;20479;-56
2021/09/02 12:06:58;;;;;;;6.47;6.07;;;33.60;99.90;;;;;;4967135;28;20456;-53
2021/09/02 12:09:27;;;;;;;7.10;6.60;;;33.80;99.90;;;;;;4968837;28;20436;-54
2021/09/02 12:11:53;;;;;;;6.90;6.50;;;33.90;99.90;;;;;;4966658;28;20468;-54
2021/09/02 12:14:25;;;;;;;7.00;6.60;;;33.40;99.90;;;;;;4969247;28;20421;-52
2021/09/02 12:17:11;;;;;;;7.13;6.63;;;32.60;99.90;;;;;;4969980;28;20189;-51
2021/09/02 12:19:51;;;;;;;7.40;6.90;;;32.20;99.90;;;;;;4967734;28;20435;-57
2021/09/02 12:22:18;;;;;;;7.03;6.53;;;31.60;99.90;;;;;;4967991;28;20500;-55
2021/09/02 12:24:44;;;;;;;6.53;6.13;;;31.70;99.90;;;;;;4969514;28;20446;-55
2021/09/02 12:27:10;;;;;;;7.00;6.60;;;31.50;99.90;;;;;;4969981;28;20467;-54
2021/09/02 12:29:49;;;;;;;8.30;7.53;;;31.60;99.90;;;;;;4968987;28;20260;-55
2021/09/02 12:32:17;;;;;;;7.03;6.53;;;32.40;99.90;;;;;;4966738;28;20284;-50